KLUK/LUK METAR and TAF weather

Enter ICAO airport designator
Station Type Date Time Source
KLUK METAR 2019/08/19 08:53 UTC NOAA

KLUK 190853Z AUTO 24003KT 10SM SCT060 SCT075 22/19 A2999 RMK AO2 SLP150 60000 T02170194 55


Station Type Date Time Source
KLUK Decoded METAR 2019/08/19 08:53 UTC NOAA

Station name not available
Aug 19, 2019 - 04:53 AM EDT / 2019.08.19 0853 UTC
Wind: from the WSW (240 degrees) at 3 MPH (3 KT):0
Visibility: 10 mile(s):0
Sky conditions: partly cloudy
Temperature: 71.1 F (21.7 C)
Dew Point: 66.9 F (19.4 C)
Relative Humidity: 86%
Pressure (altimeter): 29.99 in. Hg (1015 hPa)
Pressure tendency: 0.01 inches (0.2 hPa) lower than three hours ago
ob: KLUK 190853Z AUTO 24003KT

Station Type Date Time Source
KLUK TAF 2019/08/19 06:34 UTC NOAA

TAF KLUK 190532Z 1906/2006 34005KT P6SM VCSH FEW070 SCT100 OVC130
FM191400 23006KT P6SM VCSH BKN050
FM200200 19003KT P6SM SCT050 BKN250

Example: see airport list